首页
METAR-TAF:

METAR-TAF

机场 :

Norman Wells, 西北特區, 加拿大

纬度: 65-17N, 经度: 126-48W, 海拔: 67米

当前天气观测

该预报发布于37分钟前的22:00 UTC
风速4节,风向
温度 -26°C
湿度 76%
气压 1024 hPa
能見度: 48.3公里
少量云层高于3500英尺

METAR: CYVQ 112200Z 10004KT 30SM FEW035 M26/M29 A3024 RMK SC1 SC TR SLP254

时间: 15:37 (22:37 UTC)

预报

该预报发布于4小时和59分钟前的17:38 UTC
预报有效从11日的 18点(UTC)到 12日的 06点(UTC)
风速5节,风向
能見度: 10公里
天空无云
从 11日的 2200点(UTC)
风速7节,风向东转东南
能見度: 10公里
天空无云

TAF: CYVQ 111738Z 1118/1206 10005KT WS005/12025KT P6SM SKC FM112200 11007KT P6SM SKC RMK NXT FCST BY 120000Z

超过4000个机场的气象观测和天气预报(METAR&TAF报告)。

可查询的气象台以黄色和红色小点在地图上表示。

将鼠标移到小点上方,可查看气象台名称。

然后点击查看天气观测和预报。

如需切换地图:点击带黑十字的绿色按钮放大地图;点击带横线的绿色按钮缩小地图;或者点击绿色箭头查看邻近地区的地图。


METAR-TAF: